createdAt,value
2023-05-24T00:05:12.486Z,2.60
2023-05-24T00:15:41.570Z,2.80
2023-05-24T00:26:20.348Z,3.00
2023-05-24T00:47:27.591Z,2.70
2023-05-24T00:57:55.380Z,3.10
2023-05-24T01:08:55.734Z,2.80
2023-05-24T01:20:18.111Z,3.60
2023-05-24T01:30:53.214Z,2.90
2023-05-24T01:41:27.944Z,2.80
2023-05-24T01:52:04.571Z,2.90
2023-05-24T02:03:10.158Z,3.50
2023-05-24T02:14:02.620Z,3.90
2023-05-24T02:24:48.676Z,4.10
2023-05-24T02:36:14.288Z,5.20
2023-05-24T03:20:06.328Z,4.60
2023-05-24T03:30:46.552Z,3.70
2023-05-24T03:41:40.981Z,4.50
2023-05-24T03:52:10.829Z,3.20
2023-05-24T04:02:55.576Z,5.10
2023-05-24T04:13:44.332Z,3.70
2023-05-24T04:24:50.029Z,4.20
2023-05-24T04:35:40.133Z,4.50
2023-05-24T04:46:19.012Z,3.20
2023-05-24T04:56:44.589Z,4.30
2023-05-24T05:07:23.535Z,3.80
2023-05-24T05:18:09.284Z,3.30
2023-05-24T05:28:40.552Z,3.90
2023-05-24T05:39:14.148Z,3.10
2023-05-24T05:50:05.029Z,3.70
2023-05-24T06:00:39.630Z,3.10
2023-05-24T06:21:43.021Z,2.90
2023-05-24T06:32:17.869Z,2.80
2023-05-24T06:42:52.599Z,3.00
2023-05-24T06:53:23.378Z,2.50
2023-05-24T07:03:49.293Z,3.40
2023-05-24T07:14:16.271Z,2.90
2023-05-24T07:25:01.338Z,3.70
2023-05-24T07:35:49.077Z,2.40
2023-05-24T07:47:24.253Z,2.80
2023-05-24T07:57:49.894Z,2.80
2023-05-24T08:08:41.570Z,3.20
2023-05-24T08:19:07.408Z,2.60
2023-05-24T08:29:36.414Z,2.50
2023-05-24T08:40:42.636Z,2.50
2023-05-24T08:51:53.530Z,2.50
2023-05-24T09:02:46.815Z,2.40
2023-05-24T09:13:58.747Z,2.90
2023-05-24T09:24:54.950Z,3.20
2023-05-24T09:35:43.681Z,3.50
2023-05-24T09:46:09.646Z,3.20
2023-05-24T09:57:09.329Z,3.20
2023-05-24T10:08:15.201Z,3.50
2023-05-24T10:18:43.793Z,3.00
2023-05-24T10:29:51.005Z,2.60
2023-05-24T10:40:44.829Z,3.10
2023-05-24T10:52:05.056Z,3.50
2023-05-24T11:03:24.051Z,2.20
2023-05-24T11:47:31.412Z,2.60
2023-05-24T11:58:51.345Z,2.60
2023-05-24T12:19:51.502Z,2.80
2023-05-24T12:30:53.794Z,3.00
2023-05-24T12:41:33.959Z,2.40
2023-05-24T12:52:41.091Z,2.20
2023-05-24T13:03:17.519Z,2.00
2023-05-24T13:14:26.090Z,2.70
2023-05-24T13:25:22.984Z,3.30
2023-05-24T13:36:21.536Z,2.50
2023-05-24T13:46:55.773Z,2.60
2023-05-24T13:58:11.045Z,2.60
2023-05-24T14:09:36.970Z,2.20
2023-05-24T14:21:11.938Z,2.70
2023-05-24T14:32:10.267Z,2.80
2023-05-24T14:43:34.923Z,2.90
2023-05-24T14:54:37.641Z,2.20
2023-05-24T15:05:34.877Z,2.00
2023-05-24T15:16:27.102Z,2.60
2023-05-24T15:27:13.237Z,2.50
2023-05-24T15:38:25.058Z,2.80
2023-05-24T15:48:50.356Z,2.20
2023-05-24T15:59:56.443Z,2.80
2023-05-24T16:10:21.890Z,2.40
2023-05-24T16:20:51.009Z,2.70
2023-05-24T16:32:08.178Z,2.50
2023-05-24T16:42:56.737Z,2.70
2023-05-24T16:53:57.743Z,3.20
2023-05-24T17:16:26.378Z,2.20
2023-05-24T17:27:52.240Z,2.90
2023-05-24T17:38:58.002Z,2.40
2023-05-24T17:49:32.256Z,2.80
2023-05-24T18:00:40.151Z,3.80
2023-05-24T18:11:46.617Z,3.10
2023-05-24T18:22:34.858Z,2.90
2023-05-24T18:33:08.435Z,3.30
2023-05-24T18:44:25.860Z,3.20
2023-05-24T18:55:12.061Z,3.40
2023-05-24T19:06:13.506Z,4.50
2023-05-24T19:16:45.385Z,4.90
2023-05-24T19:27:12.558Z,5.10
2023-05-24T19:38:03.387Z,5.70
2023-05-24T19:48:38.818Z,5.90
2023-05-24T19:59:09.905Z,6.30
2023-05-24T20:09:38.794Z,6.50
2023-05-24T20:20:05.401Z,7.60
2023-05-24T20:30:51.509Z,7.00
2023-05-24T20:41:18.262Z,6.20
2023-05-24T20:52:11.811Z,7.10
2023-05-24T21:02:40.761Z,7.90
2023-05-24T21:13:27.632Z,7.30
2023-05-24T21:24:18.603Z,8.10
2023-05-24T21:34:51.678Z,6.50
2023-05-24T21:45:20.680Z,5.90
2023-05-24T21:55:54.703Z,6.30
2023-05-24T22:06:46.213Z,6.90
2023-05-24T22:17:54.876Z,6.40
2023-05-24T22:28:20.933Z,7.50
2023-05-24T22:39:25.788Z,7.20
2023-05-24T23:34:45.506Z,5.60
2023-05-24T23:45:19.590Z,4.60
2023-05-24T23:55:45.409Z,6.00
